createdAt,value
2019-03-22T00:00:43.930Z,68.75
2019-03-22T02:36:00.718Z,71.11
2019-03-22T02:38:30.433Z,70.81
2019-03-22T02:41:00.123Z,70.69
2019-03-22T02:43:29.799Z,70.65
2019-03-22T02:45:59.479Z,70.80
2019-03-22T02:48:29.211Z,70.83
2019-03-22T02:50:58.930Z,70.83
2019-03-22T02:53:28.627Z,70.76
2019-03-22T02:55:58.658Z,70.88
2019-03-22T02:58:28.462Z,71.08
2019-03-22T03:00:58.113Z,71.49
2019-03-22T03:03:27.804Z,72.43
2019-03-22T03:05:57.515Z,73.58
2019-03-22T03:08:27.195Z,73.81
2019-03-22T03:10:56.904Z,73.56
2019-03-22T03:13:26.606Z,73.06
2019-03-22T03:15:56.270Z,72.64
2019-03-22T03:18:25.939Z,72.35
2019-03-22T03:20:55.640Z,72.09
2019-03-22T03:23:25.565Z,72.03
2019-03-22T03:25:55.262Z,71.90
2019-03-22T03:28:36.044Z,71.96
2019-03-22T03:30:56.396Z,72.11
2019-03-22T03:33:26.108Z,71.89
2019-03-22T03:35:55.790Z,71.93
2019-03-22T03:38:25.511Z,71.87
2019-03-22T03:40:55.234Z,71.71
2019-03-22T03:43:24.923Z,71.57
2019-03-22T03:45:54.636Z,71.54
2019-03-22T03:48:24.345Z,71.62
2019-03-22T03:50:54.149Z,71.71
2019-03-22T03:53:23.842Z,71.68
2019-03-22T03:55:53.503Z,71.52
2019-03-22T03:58:23.176Z,71.40
2019-03-22T04:00:52.868Z,71.48
2019-03-22T04:03:22.553Z,71.71
2019-03-22T04:05:52.276Z,72.05
2019-03-22T04:08:21.972Z,72.17
2019-03-22T04:10:51.666Z,72.59
2019-03-22T04:13:21.337Z,72.59
2019-03-22T04:15:51.077Z,72.95
2019-03-22T04:18:20.955Z,73.33
2019-03-22T04:20:50.741Z,73.63
2019-03-22T04:23:20.501Z,74.12
2019-03-22T04:25:50.183Z,74.42
2019-03-22T04:28:20.123Z,74.56
2019-03-22T04:30:50.017Z,74.45
2019-03-22T04:33:19.809Z,74.05
2019-03-22T04:35:49.496Z,73.70
2019-03-22T04:38:19.157Z,73.73
2019-03-22T04:40:48.870Z,73.64
2019-03-22T04:43:18.534Z,73.69
2019-03-22T04:45:50.347Z,73.68
2019-03-22T04:48:28.193Z,73.71
2019-03-22T04:51:00.959Z,73.88
2019-03-22T04:53:35.585Z,73.80
2019-03-22T04:56:05.543Z,73.96
2019-03-22T04:58:36.398Z,74.20
2019-03-22T05:01:07.031Z,74.09
2019-03-22T05:03:38.393Z,74.05
2019-03-22T05:06:09.770Z,74.30
2019-03-22T05:08:41.813Z,74.18
2019-03-22T05:11:14.453Z,74.42
2019-03-22T05:13:46.178Z,75.25
2019-03-22T05:16:18.530Z,75.67
2019-03-22T05:18:51.326Z,75.64
2019-03-22T05:21:25.006Z,75.82
2019-03-22T05:24:18.297Z,75.73
2019-03-22T05:26:50.092Z,75.82
2019-03-22T05:29:40.096Z,75.67
2019-03-22T05:32:12.315Z,75.66
2019-03-22T05:34:42.054Z,75.66
2019-03-22T05:37:11.820Z,75.64
2019-03-22T05:39:41.797Z,75.65
2019-03-22T05:42:11.610Z,76.07
2019-03-22T05:44:41.280Z,76.35
2019-03-22T05:47:11.018Z,76.61
2019-03-22T05:49:40.691Z,76.66
2019-03-22T05:52:10.462Z,76.53
2019-03-22T05:54:40.143Z,76.49
2019-03-22T05:57:13.588Z,76.16
2019-03-22T05:59:42.799Z,75.94
2019-03-22T06:02:12.679Z,76.15
2019-03-22T06:04:42.362Z,76.35
2019-03-22T06:07:12.023Z,76.55
2019-03-22T06:09:41.797Z,76.84
2019-03-22T06:12:11.503Z,76.79
2019-03-22T06:14:41.179Z,76.55
2019-03-22T06:17:10.929Z,76.40
2019-03-22T06:19:40.584Z,76.51
2019-03-22T06:22:10.286Z,76.92
2019-03-22T06:24:39.924Z,76.95
2019-03-22T06:27:09.592Z,76.89
2019-03-22T06:29:39.280Z,76.86
2019-03-22T06:32:08.962Z,76.77
2019-03-22T06:34:38.700Z,76.60
2019-03-22T06:37:08.374Z,76.52
2019-03-22T06:39:38.014Z,76.43
2019-03-22T06:42:07.703Z,76.43
2019-03-22T06:44:37.382Z,76.21
2019-03-22T06:47:07.072Z,76.48
2019-03-22T06:49:36.737Z,76.47
2019-03-22T06:52:06.423Z,76.58
2019-03-22T06:54:36.100Z,76.49
2019-03-22T06:57:05.763Z,76.13
2019-03-22T06:59:35.519Z,75.85
2019-03-22T07:02:05.251Z,75.63
2019-03-22T07:04:34.919Z,75.41
2019-03-22T07:07:04.610Z,75.27
2019-03-22T07:09:34.280Z,75.83
2019-03-22T07:12:03.949Z,75.88
2019-03-22T07:14:33.619Z,75.92
2019-03-22T07:17:03.326Z,76.14
2019-03-22T07:19:32.976Z,76.21
2019-03-22T07:22:02.617Z,76.04
2019-03-22T07:24:32.293Z,75.78
2019-03-22T07:27:01.945Z,76.04
2019-03-22T07:29:31.615Z,76.29
2019-03-22T07:32:01.289Z,76.45
2019-03-22T07:34:31.000Z,76.08
2019-03-22T07:37:00.680Z,75.67
2019-03-22T07:39:30.333Z,75.43
2019-03-22T07:42:00.021Z,75.36
2019-03-22T07:44:29.664Z,75.28
2019-03-22T07:46:59.324Z,75.25
2019-03-22T07:49:28.973Z,74.87
2019-03-22T07:51:58.666Z,74.90
2019-03-22T07:54:28.304Z,74.44
2019-03-22T07:56:57.952Z,74.68
2019-03-22T07:59:27.664Z,74.17
2019-03-22T08:01:57.363Z,73.66
2019-03-22T08:04:27.040Z,74.17
2019-03-22T08:06:56.712Z,74.55
2019-03-22T08:09:26.429Z,74.67
2019-03-22T08:11:56.087Z,74.57
2019-03-22T08:14:25.772Z,73.59
2019-03-22T08:16:55.451Z,72.97
2019-03-22T08:19:25.190Z,72.38
2019-03-22T08:21:54.830Z,71.83
2019-03-22T08:24:24.482Z,72.82
2019-03-22T08:26:54.169Z,71.63
2019-03-22T08:29:23.841Z,72.34
2019-03-22T08:31:53.591Z,72.46
2019-03-22T08:34:23.324Z,72.68
2019-03-22T08:36:52.963Z,72.95
2019-03-22T08:39:22.619Z,73.06
2019-03-22T08:41:52.295Z,72.86
2019-03-22T08:44:21.971Z,72.36
2019-03-22T08:46:51.633Z,71.70
2019-03-22T08:49:21.344Z,71.16
2019-03-22T08:51:51.135Z,67.31
2019-03-22T08:54:20.782Z,61.39
2019-03-22T08:56:50.492Z,56.86
2019-03-22T08:59:20.362Z,50.69
2019-03-22T09:01:50.060Z,45.77
2019-03-22T09:04:19.719Z,43.03
2019-03-22T09:06:49.437Z,40.48
2019-03-22T09:09:19.100Z,39.65
2019-03-22T09:11:48.708Z,38.66
2019-03-22T09:14:18.362Z,37.94
2019-03-22T09:16:48.074Z,37.57
2019-03-22T09:19:17.708Z,36.57
2019-03-22T09:21:47.437Z,35.31
2019-03-22T09:24:19.028Z,35.00
2019-03-22T09:26:48.528Z,34.57
2019-03-22T09:29:18.231Z,33.66
2019-03-22T09:31:47.918Z,33.64
2019-03-22T09:34:17.542Z,33.50
2019-03-22T09:36:47.188Z,32.51
2019-03-22T09:39:16.882Z,33.23
2019-03-22T09:41:46.551Z,33.10
2019-03-22T09:44:16.246Z,34.38
2019-03-22T09:46:45.936Z,35.23
2019-03-22T09:49:15.613Z,35.13
2019-03-22T09:51:45.323Z,34.95
2019-03-22T09:54:15.038Z,35.53
2019-03-22T09:56:47.215Z,35.92
2019-03-22T09:59:16.153Z,35.85
2019-03-22T10:01:45.861Z,36.41
2019-03-22T10:04:15.526Z,36.13
2019-03-22T10:06:45.311Z,35.15
2019-03-22T10:09:14.952Z,35.65
2019-03-22T10:11:44.627Z,36.50
2019-03-22T10:14:14.298Z,36.89
2019-03-22T10:16:43.975Z,37.58
2019-03-22T10:19:13.616Z,37.00
2019-03-22T10:21:43.381Z,36.02
2019-03-22T10:24:13.067Z,36.46
2019-03-22T10:26:42.708Z,37.22
2019-03-22T10:29:12.396Z,37.27
2019-03-22T10:31:42.112Z,37.32
2019-03-22T10:34:11.787Z,37.72
2019-03-22T10:36:41.500Z,37.44
2019-03-22T10:39:11.436Z,38.18
2019-03-22T10:41:41.140Z,37.42
2019-03-22T10:44:10.815Z,36.03
2019-03-22T10:46:40.545Z,35.77
2019-03-22T10:49:10.207Z,36.20
2019-03-22T10:51:39.887Z,36.42
2019-03-22T10:54:09.602Z,35.56
2019-03-22T10:56:39.285Z,35.64
2019-03-22T10:59:08.949Z,35.43
2019-03-22T11:01:48.664Z,34.52
2019-03-22T11:06:39.681Z,33.75
2019-03-22T11:09:10.177Z,33.63
2019-03-22T11:11:39.852Z,33.61
2019-03-22T11:14:09.575Z,33.43
2019-03-22T11:16:39.326Z,34.10
2019-03-22T11:19:08.984Z,33.46
2019-03-22T11:21:38.654Z,32.84
2019-03-22T11:24:08.297Z,33.65
2019-03-22T11:26:37.969Z,33.20
2019-03-22T11:29:07.716Z,33.14
2019-03-22T11:31:40.135Z,33.77
2019-03-22T11:34:08.788Z,32.98
2019-03-22T11:36:38.460Z,33.71
2019-03-22T11:39:15.913Z,33.40
2019-03-22T11:41:43.686Z,33.14
2019-03-22T11:44:13.375Z,33.78
2019-03-22T11:46:43.060Z,33.95
2019-03-22T11:49:12.864Z,34.42
2019-03-22T11:51:42.620Z,33.27
2019-03-22T11:54:12.360Z,33.29
2019-03-22T11:56:42.033Z,33.51
2019-03-22T11:59:11.751Z,33.08
2019-03-22T12:01:41.449Z,34.14
2019-03-22T12:04:11.969Z,33.96
2019-03-22T12:06:41.631Z,33.29
2019-03-22T12:09:11.341Z,33.72
2019-03-22T12:11:42.146Z,33.45
2019-03-22T12:14:11.999Z,32.70
2019-03-22T12:16:41.737Z,32.58
2019-03-22T12:19:11.400Z,32.56
2019-03-22T12:21:41.110Z,33.14
2019-03-22T12:24:10.864Z,32.93
2019-03-22T12:26:40.583Z,32.86
2019-03-22T12:29:10.274Z,33.85
2019-03-22T12:31:39.955Z,33.35
2019-03-22T12:34:09.675Z,33.96
2019-03-22T12:36:39.425Z,32.61
2019-03-22T12:39:10.053Z,33.03
2019-03-22T12:41:39.732Z,32.88
2019-03-22T12:44:09.482Z,33.30
2019-03-22T12:46:39.169Z,33.52
2019-03-22T12:49:08.850Z,32.96
2019-03-22T12:51:38.514Z,33.36
2019-03-22T12:54:08.215Z,33.41
2019-03-22T12:56:37.884Z,32.84
2019-03-22T12:59:07.635Z,32.87
2019-03-22T13:01:37.311Z,32.84
2019-03-22T13:04:07.000Z,33.43
2019-03-22T13:06:36.722Z,32.39
2019-03-22T13:09:09.185Z,33.34
2019-03-22T13:11:38.912Z,32.89
2019-03-22T13:14:08.583Z,32.23
2019-03-22T13:16:38.271Z,32.83
2019-03-22T13:19:07.922Z,32.12
2019-03-22T13:21:37.613Z,32.08
2019-03-22T13:24:07.307Z,32.46
2019-03-22T13:26:36.989Z,32.56
2019-03-22T13:29:06.699Z,33.00
2019-03-22T13:31:36.457Z,32.83
2019-03-22T13:34:06.161Z,33.12
2019-03-22T13:36:35.860Z,32.83
2019-03-22T13:39:08.184Z,33.25
2019-03-22T13:41:38.002Z,32.44
2019-03-22T13:44:07.849Z,32.68
2019-03-22T13:46:40.617Z,32.72
2019-03-22T13:49:09.119Z,32.71
2019-03-22T13:51:38.923Z,32.85
2019-03-22T13:54:08.614Z,32.91
2019-03-22T13:56:38.366Z,32.52
2019-03-22T13:59:08.058Z,32.75
2019-03-22T14:01:37.725Z,32.39
2019-03-22T14:04:07.461Z,32.47
2019-03-22T14:06:37.233Z,32.71
2019-03-22T14:09:08.805Z,32.68
2019-03-22T14:11:38.567Z,32.29
2019-03-22T14:14:08.263Z,31.91
2019-03-22T14:16:37.969Z,31.75
2019-03-22T14:19:07.647Z,31.40
2019-03-22T14:21:37.313Z,31.47
2019-03-22T14:24:07.013Z,31.58
2019-03-22T14:26:36.693Z,31.46
2019-03-22T14:29:06.403Z,30.62
2019-03-22T14:31:36.085Z,30.04
2019-03-22T14:34:05.757Z,30.47
2019-03-22T14:36:35.413Z,30.56
2019-03-22T14:39:07.840Z,30.95
2019-03-22T14:41:37.538Z,30.73
2019-03-22T14:44:07.255Z,30.66
2019-03-22T14:46:36.932Z,30.72
2019-03-22T14:49:06.599Z,30.62
2019-03-22T14:51:36.284Z,31.15
2019-03-22T14:54:05.951Z,31.09
2019-03-22T14:56:35.622Z,31.30
2019-03-22T14:59:05.291Z,31.31
2019-03-22T15:01:34.959Z,30.72
2019-03-22T15:04:04.650Z,31.60
2019-03-22T15:06:34.326Z,31.28
2019-03-22T15:09:05.700Z,31.12
2019-03-22T15:11:35.454Z,30.62
2019-03-22T15:14:15.237Z,30.43
2019-03-22T15:17:05.804Z,30.37
2019-03-22T15:19:53.036Z,30.24
2019-03-22T15:22:44.502Z,30.50
2019-03-22T15:25:33.586Z,30.67
2019-03-22T15:28:21.979Z,30.77
2019-03-22T15:31:13.052Z,30.48
2019-03-22T15:34:07.906Z,30.26
2019-03-22T15:36:54.289Z,30.11
2019-03-22T15:39:49.220Z,30.51
2019-03-22T15:42:18.869Z,31.15
2019-03-22T15:44:48.571Z,30.80
2019-03-22T15:47:18.235Z,30.92
2019-03-22T15:49:56.792Z,30.94
2019-03-22T15:52:26.518Z,30.85
2019-03-22T15:54:56.209Z,30.85
2019-03-22T15:57:26.023Z,31.23
2019-03-22T15:59:55.713Z,31.56
2019-03-22T16:02:25.387Z,31.45
2019-03-22T16:04:55.083Z,31.54
2019-03-22T16:07:24.843Z,31.26
2019-03-22T16:09:54.578Z,30.94
2019-03-22T16:12:24.262Z,31.59
2019-03-22T16:14:53.954Z,31.95
2019-03-22T16:17:23.646Z,32.07
2019-03-22T16:19:53.376Z,32.18
2019-03-22T16:22:23.079Z,32.03
2019-03-22T16:24:52.764Z,31.88
2019-03-22T16:27:22.490Z,32.37
2019-03-22T16:29:52.213Z,32.46
2019-03-22T16:32:21.850Z,32.66
2019-03-22T16:34:51.554Z,32.83
2019-03-22T16:37:21.307Z,33.11
2019-03-22T16:39:51.038Z,33.25
2019-03-22T16:42:20.742Z,33.62
2019-03-22T16:44:50.374Z,33.78
2019-03-22T16:47:20.092Z,34.32
2019-03-22T16:49:49.862Z,34.43
2019-03-22T16:52:19.556Z,35.25
2019-03-22T16:54:49.215Z,36.01
2019-03-22T16:57:18.898Z,36.62
2019-03-22T16:59:48.677Z,37.28
2019-03-22T17:02:18.442Z,38.29
2019-03-22T17:04:48.299Z,38.42
2019-03-22T17:07:18.028Z,37.89
2019-03-22T17:09:47.917Z,38.68
2019-03-22T17:12:17.638Z,39.25
2019-03-22T17:14:47.364Z,39.75
2019-03-22T17:17:17.124Z,40.94
2019-03-22T17:19:46.847Z,42.27
2019-03-22T17:22:16.547Z,43.19
2019-03-22T17:24:46.313Z,43.51
2019-03-22T17:27:16.062Z,43.30
2019-03-22T17:29:45.953Z,43.19
2019-03-22T17:32:15.691Z,43.44
2019-03-22T17:34:45.461Z,43.27
2019-03-22T17:37:15.294Z,43.33
2019-03-22T17:39:47.230Z,43.58
2019-03-22T17:42:17.202Z,43.70
2019-03-22T17:44:46.867Z,44.20
2019-03-22T17:47:16.577Z,44.49
2019-03-22T17:49:48.415Z,44.61
2019-03-22T17:52:17.870Z,45.01
2019-03-22T17:54:47.702Z,45.37
2019-03-22T17:57:18.976Z,45.82
2019-03-22T17:59:48.920Z,46.10
2019-03-22T18:02:18.614Z,46.06
2019-03-22T18:04:48.386Z,46.21
2019-03-22T18:07:18.123Z,46.36
2019-03-22T18:09:47.888Z,46.66
2019-03-22T18:12:17.591Z,46.88
2019-03-22T18:14:47.916Z,47.22
2019-03-22T18:17:17.715Z,47.68
2019-03-22T18:19:47.408Z,47.87
2019-03-22T18:22:17.129Z,48.04
2019-03-22T18:24:47.232Z,48.32
2019-03-22T18:27:17.087Z,48.67
2019-03-22T18:29:46.944Z,49.25
2019-03-22T18:32:16.871Z,50.07
2019-03-22T18:34:46.563Z,50.52
2019-03-22T18:37:16.288Z,50.89
2019-03-22T18:39:46.053Z,51.34
2019-03-22T18:42:15.913Z,51.83
2019-03-22T18:44:45.631Z,52.08
2019-03-22T18:47:15.403Z,52.36
2019-03-22T18:49:45.321Z,52.47
2019-03-22T18:52:15.989Z,52.82
2019-03-22T18:54:45.889Z,52.76
2019-03-22T18:57:15.653Z,52.85
2019-03-22T18:59:46.149Z,52.98
2019-03-22T19:02:15.943Z,53.09
2019-03-22T19:04:46.139Z,53.23
2019-03-22T19:07:16.283Z,53.08
2019-03-22T19:09:46.464Z,52.82
2019-03-22T19:12:16.158Z,52.87
2019-03-22T19:14:46.057Z,53.20
2019-03-22T19:17:15.949Z,53.66
2019-03-22T19:19:45.802Z,54.04
2019-03-22T19:22:15.776Z,54.52
2019-03-22T19:24:45.469Z,54.79
2019-03-22T19:27:15.283Z,55.07
2019-03-22T19:29:45.012Z,55.11
2019-03-22T19:32:14.787Z,55.13
2019-03-22T19:34:53.923Z,55.20
2019-03-22T19:37:16.167Z,55.27
2019-03-22T19:39:45.916Z,55.51
2019-03-22T19:42:15.630Z,55.91
2019-03-22T19:44:45.639Z,56.19
2019-03-22T19:47:15.881Z,56.41
2019-03-22T19:49:45.567Z,56.50
2019-03-22T19:52:15.353Z,56.73
2019-03-22T19:54:45.089Z,56.92
2019-03-22T19:57:14.978Z,57.01
2019-03-22T19:59:44.746Z,57.19
2019-03-22T20:02:14.530Z,57.30
2019-03-22T20:04:44.392Z,57.38
2019-03-22T20:07:14.174Z,57.58
2019-03-22T20:09:44.521Z,57.70
2019-03-22T20:12:14.195Z,57.85
2019-03-22T20:14:44.033Z,57.93
2019-03-22T20:17:13.873Z,58.01
2019-03-22T20:19:43.650Z,58.11
2019-03-22T20:22:13.620Z,58.25
2019-03-22T20:24:43.363Z,58.38
2019-03-22T20:27:13.060Z,58.41
2019-03-22T20:29:42.788Z,58.64
2019-03-22T20:32:12.706Z,58.85
2019-03-22T20:34:42.418Z,59.01
2019-03-22T20:37:12.136Z,59.19
2019-03-22T20:39:42.083Z,59.28
2019-03-22T20:42:11.783Z,59.27
2019-03-22T20:44:41.872Z,59.20
2019-03-22T20:47:11.873Z,59.21
2019-03-22T20:49:41.729Z,59.11
2019-03-22T20:52:11.661Z,59.19
2019-03-22T20:54:41.469Z,59.36
2019-03-22T20:57:11.403Z,59.70
2019-03-22T20:59:41.496Z,59.92
2019-03-22T21:02:11.201Z,60.17
2019-03-22T21:04:40.949Z,60.20
2019-03-22T21:07:10.744Z,60.29
2019-03-22T21:09:40.437Z,60.48
2019-03-22T21:12:10.136Z,60.62
2019-03-22T21:14:40.001Z,60.84
2019-03-22T21:17:09.753Z,60.94
2019-03-22T21:19:39.468Z,61.17
2019-03-22T21:22:09.288Z,61.31
2019-03-22T21:24:39.507Z,61.56
2019-03-22T21:27:15.568Z,61.42
2019-03-22T21:29:44.395Z,61.45
2019-03-22T21:32:12.910Z,61.45
2019-03-22T21:34:44.139Z,61.55
2019-03-22T21:37:14.232Z,61.71
2019-03-22T21:39:43.960Z,61.82
2019-03-22T21:42:13.700Z,61.96
2019-03-22T21:44:43.606Z,62.12
2019-03-22T21:47:13.382Z,62.36
2019-03-22T21:49:43.114Z,62.72
2019-03-22T21:52:12.809Z,62.74
2019-03-22T21:54:42.700Z,62.61
2019-03-22T21:57:12.699Z,62.63
2019-03-22T21:59:42.582Z,62.50
2019-03-22T22:02:12.331Z,62.45
2019-03-22T22:04:42.147Z,62.52
2019-03-22T22:07:11.917Z,62.67
2019-03-22T22:09:41.615Z,62.88
2019-03-22T22:12:11.439Z,63.03
2019-03-22T22:14:41.364Z,62.96
2019-03-22T22:17:11.056Z,62.96
2019-03-22T22:19:40.798Z,63.21
2019-03-22T22:22:10.539Z,63.50
2019-03-22T22:24:40.326Z,63.57
2019-03-22T22:27:13.978Z,63.89
2019-03-22T22:29:41.552Z,64.04
2019-03-22T22:32:11.583Z,64.12
2019-03-22T22:34:41.376Z,63.96
2019-03-22T22:37:11.052Z,63.96
2019-03-22T22:39:40.765Z,64.12
2019-03-22T22:42:10.532Z,64.22
2019-03-22T22:44:40.295Z,64.34
2019-03-22T22:47:09.990Z,64.31
2019-03-22T22:49:39.918Z,64.31
2019-03-22T22:52:09.671Z,64.52
2019-03-22T22:54:39.501Z,64.44
2019-03-22T22:57:09.236Z,64.39
2019-03-22T22:59:38.954Z,64.52
2019-03-22T23:02:08.672Z,64.70
2019-03-22T23:04:38.339Z,64.78
2019-03-22T23:07:08.007Z,64.72
2019-03-22T23:09:37.682Z,64.98
2019-03-22T23:12:07.513Z,65.22
2019-03-22T23:14:37.178Z,65.23
2019-03-22T23:17:06.869Z,65.04
2019-03-22T23:19:36.701Z,64.99
2019-03-22T23:22:06.391Z,64.93
2019-03-22T23:24:36.098Z,64.89
2019-03-22T23:27:05.757Z,64.95
2019-03-22T23:29:35.617Z,65.01
2019-03-22T23:32:05.369Z,65.18
2019-03-22T23:34:35.071Z,65.41
2019-03-22T23:37:07.032Z,65.62
2019-03-22T23:39:36.193Z,65.88
2019-03-22T23:42:05.888Z,66.09
2019-03-22T23:44:35.564Z,66.36
2019-03-22T23:47:05.426Z,67.00
2019-03-22T23:49:35.073Z,66.97
2019-03-22T23:52:04.750Z,66.87
2019-03-22T23:54:34.445Z,66.69
2019-03-22T23:57:04.124Z,66.40
2019-03-22T23:59:33.812Z,66.18
